createdAt,value
2023-03-24T00:01:57.131Z,89.30
2023-03-24T00:04:28.451Z,89.00
2023-03-24T00:06:55.570Z,89.30
2023-03-24T00:09:22.755Z,88.70
2023-03-24T00:11:49.886Z,89.20
2023-03-24T00:14:17.054Z,89.30
2023-03-24T00:16:45.380Z,89.50
2023-03-24T00:19:15.621Z,89.80
2023-03-24T00:21:43.491Z,90.10
2023-03-24T00:24:11.536Z,90.10
2023-03-24T00:26:39.839Z,90.40
2023-03-24T00:29:09.084Z,90.20
2023-03-24T00:31:40.128Z,89.80
2023-03-24T00:34:08.815Z,90.10
2023-03-24T00:36:36.750Z,90.30
2023-03-24T00:39:06.222Z,90.40
2023-03-24T00:41:33.884Z,90.40
2023-03-24T00:44:03.776Z,90.50
2023-03-24T00:46:31.373Z,90.30
2023-03-24T00:49:03.879Z,90.40
2023-03-24T00:51:38.493Z,90.70
2023-03-24T00:54:06.916Z,90.80
2023-03-24T00:56:35.730Z,90.60
2023-03-24T00:59:03.496Z,90.60
2023-03-24T01:01:36.517Z,90.80
2023-03-24T01:04:05.879Z,91.10
2023-03-24T01:06:36.637Z,91.50
2023-03-24T01:09:05.612Z,91.70
2023-03-24T01:11:35.793Z,92.70
2023-03-24T01:14:04.036Z,93.40
2023-03-24T01:16:31.787Z,94.10
2023-03-24T01:18:59.502Z,94.60
2023-03-24T01:21:26.744Z,95.00
2023-03-24T01:23:54.452Z,94.60
2023-03-24T01:26:21.643Z,94.50
2023-03-24T01:28:48.884Z,94.50
2023-03-24T01:31:16.672Z,94.80
2023-03-24T01:33:43.877Z,95.00
2023-03-24T01:36:11.561Z,95.30
2023-03-24T01:38:38.803Z,95.50
2023-03-24T01:41:06.244Z,95.60
2023-03-24T01:43:35.856Z,95.80
2023-03-24T01:46:08.164Z,96.00
2023-03-24T01:48:35.457Z,96.10
2023-03-24T01:51:02.686Z,96.10
2023-03-24T01:53:31.211Z,96.20
2023-03-24T01:55:59.459Z,96.40
2023-03-24T01:58:32.207Z,96.50
2023-03-24T02:01:20.135Z,96.90
2023-03-24T02:04:03.981Z,97.00
2023-03-24T02:06:36.172Z,97.10
2023-03-24T02:09:04.308Z,97.10
2023-03-24T02:11:33.059Z,97.20
2023-03-24T02:14:04.707Z,97.30
2023-03-24T02:16:38.369Z,97.40
2023-03-24T02:19:37.934Z,97.70
2023-03-24T02:22:14.076Z,97.50
2023-03-24T02:24:49.031Z,97.70
2023-03-24T02:27:16.428Z,98.10
2023-03-24T02:29:43.591Z,98.40
2023-03-24T02:32:19.749Z,99.50
2023-03-24T02:34:55.108Z,99.90
2023-03-24T02:37:27.424Z,99.90
2023-03-24T02:39:58.641Z,99.90
2023-03-24T02:42:34.740Z,99.90
2023-03-24T02:45:14.211Z,99.90
2023-03-24T02:47:44.386Z,99.90
2023-03-24T02:50:44.296Z,99.90
2023-03-24T02:53:16.619Z,99.90
2023-03-24T02:56:21.995Z,99.90
2023-03-24T02:59:10.368Z,99.90
2023-03-24T03:01:43.708Z,99.90
2023-03-24T03:04:33.833Z,99.90
2023-03-24T03:07:06.455Z,99.90
2023-03-24T03:09:34.420Z,99.90
2023-03-24T03:12:02.202Z,99.90
2023-03-24T03:14:41.525Z,99.90
2023-03-24T03:17:16.199Z,99.90
2023-03-24T03:19:45.368Z,99.90
2023-03-24T03:22:17.875Z,99.90
2023-03-24T03:24:53.071Z,99.90
2023-03-24T03:27:27.321Z,99.90
2023-03-24T03:29:56.850Z,99.90
2023-03-24T03:32:30.396Z,99.90
2023-03-24T03:35:00.717Z,99.90
2023-03-24T03:37:32.582Z,99.90
2023-03-24T03:40:03.345Z,99.90
2023-03-24T03:42:31.728Z,99.90
2023-03-24T03:44:59.160Z,99.90
2023-03-24T03:47:27.175Z,99.90
2023-03-24T03:49:55.477Z,99.90
2023-03-24T03:52:22.643Z,99.90
2023-03-24T03:54:51.852Z,99.90
2023-03-24T03:57:19.123Z,99.90
2023-03-24T04:00:15.824Z,99.90
2023-03-24T04:02:52.654Z,99.90
2023-03-24T04:05:29.948Z,99.90
2023-03-24T04:08:17.264Z,99.90
2023-03-24T04:11:08.292Z,99.90
2023-03-24T04:13:45.156Z,99.90
2023-03-24T04:16:36.463Z,99.90
2023-03-24T04:19:13.927Z,99.90
2023-03-24T04:21:48.777Z,99.90
2023-03-24T04:24:27.505Z,99.90
2023-03-24T04:27:09.850Z,99.90
2023-03-24T04:29:53.255Z,99.90
2023-03-24T04:32:47.263Z,99.90
2023-03-24T04:35:31.883Z,99.90
2023-03-24T04:38:17.311Z,99.90
2023-03-24T04:40:49.567Z,99.90
2023-03-24T04:43:19.593Z,99.90
2023-03-24T04:45:49.998Z,99.90
2023-03-24T04:48:25.578Z,99.90
2023-03-24T04:51:12.260Z,99.90
2023-03-24T04:54:02.572Z,99.90
2023-03-24T04:56:32.050Z,99.90
2023-03-24T04:59:04.351Z,99.90
2023-03-24T05:01:32.775Z,99.90
2023-03-24T05:04:21.793Z,99.90
2023-03-24T05:06:52.004Z,99.90
2023-03-24T05:09:24.030Z,99.90
2023-03-24T05:11:51.771Z,99.90
2023-03-24T05:14:19.999Z,99.90
2023-03-24T05:16:47.287Z,99.90
2023-03-24T05:19:20.939Z,99.90
2023-03-24T05:21:48.184Z,99.90
2023-03-24T05:24:17.589Z,99.90
2023-03-24T05:26:44.891Z,99.90
2023-03-24T05:29:17.755Z,99.90
2023-03-24T05:31:45.680Z,99.90
2023-03-24T05:34:17.149Z,99.90
2023-03-24T05:36:52.812Z,99.90
2023-03-24T05:39:21.699Z,99.90
2023-03-24T05:42:03.975Z,99.90
2023-03-24T05:44:31.297Z,99.90
2023-03-24T05:47:04.796Z,99.90
2023-03-24T05:49:32.163Z,99.90
2023-03-24T05:52:00.488Z,99.90
2023-03-24T05:54:28.061Z,99.90
2023-03-24T05:57:04.112Z,99.90
2023-03-24T05:59:39.262Z,99.90
2023-03-24T06:02:20.449Z,99.90
2023-03-24T06:04:53.241Z,99.90
2023-03-24T06:07:26.970Z,99.90
2023-03-24T06:10:03.194Z,99.90
2023-03-24T06:12:40.895Z,99.90
2023-03-24T06:15:08.837Z,99.90
2023-03-24T06:17:37.476Z,99.90
2023-03-24T06:20:15.933Z,99.90
2023-03-24T06:22:50.364Z,99.90
2023-03-24T06:25:26.170Z,99.90
2023-03-24T06:28:09.743Z,99.90
2023-03-24T06:30:37.154Z,99.90
2023-03-24T06:33:07.082Z,99.90
2023-03-24T06:35:35.493Z,99.90
2023-03-24T06:38:07.017Z,99.90
2023-03-24T06:40:35.136Z,99.90
2023-03-24T06:43:03.710Z,99.90
2023-03-24T06:45:35.245Z,99.90
2023-03-24T06:48:03.194Z,99.90
2023-03-24T06:50:33.349Z,99.90
2023-03-24T06:53:04.773Z,99.90
2023-03-24T06:55:34.251Z,99.90
2023-03-24T06:58:01.482Z,99.90
2023-03-24T07:00:42.458Z,99.90
2023-03-24T07:03:25.154Z,99.90
2023-03-24T07:06:15.450Z,99.90
2023-03-24T07:08:44.645Z,99.90
2023-03-24T07:11:11.825Z,99.90
2023-03-24T07:13:47.175Z,99.90
2023-03-24T07:16:14.398Z,99.90
2023-03-24T07:18:41.714Z,99.90
2023-03-24T07:21:09.003Z,99.90
2023-03-24T07:23:37.465Z,99.90
2023-03-24T07:26:13.696Z,99.90
2023-03-24T07:28:47.479Z,99.90
2023-03-24T07:31:25.597Z,99.90
2023-03-24T07:34:01.916Z,99.90
2023-03-24T07:36:29.335Z,99.90
2023-03-24T07:38:57.633Z,99.90
2023-03-24T07:41:31.421Z,99.90
2023-03-24T07:44:03.038Z,99.90
2023-03-24T07:46:33.822Z,99.90
2023-03-24T07:49:12.267Z,99.90
2023-03-24T07:51:48.744Z,99.90
2023-03-24T07:54:30.013Z,99.90
2023-03-24T07:56:59.267Z,99.90
2023-03-24T07:59:27.926Z,99.90
2023-03-24T08:02:16.470Z,99.90
2023-03-24T08:04:56.553Z,99.90
2023-03-24T08:07:42.779Z,99.90
2023-03-24T08:10:15.502Z,99.90
2023-03-24T08:12:42.595Z,99.90
2023-03-24T08:15:10.050Z,99.90
2023-03-24T08:17:37.243Z,99.90
2023-03-24T08:20:14.570Z,99.90
2023-03-24T08:22:43.086Z,99.90
2023-03-24T08:25:11.354Z,99.90
2023-03-24T08:27:39.323Z,99.90
2023-03-24T08:30:07.526Z,99.90
2023-03-24T08:32:34.890Z,99.90
2023-03-24T08:35:04.891Z,99.90
2023-03-24T08:37:32.074Z,99.90
2023-03-24T08:40:04.062Z,99.90
2023-03-24T08:42:31.306Z,99.90
2023-03-24T08:44:58.654Z,99.90
2023-03-24T08:47:26.127Z,99.90
2023-03-24T08:49:57.958Z,99.90
2023-03-24T08:52:26.089Z,99.90
2023-03-24T08:54:53.173Z,99.90
2023-03-24T08:57:21.622Z,99.90
2023-03-24T08:59:50.858Z,99.90
2023-03-24T09:02:18.691Z,99.90
2023-03-24T09:04:45.990Z,99.90
2023-03-24T09:07:13.167Z,99.90
2023-03-24T09:09:40.300Z,99.90
2023-03-24T09:12:07.845Z,99.90
2023-03-24T09:14:35.299Z,99.90
2023-03-24T09:17:02.962Z,99.90
2023-03-24T09:19:34.182Z,99.90
2023-03-24T09:22:01.252Z,99.90
2023-03-24T09:24:28.380Z,99.90
2023-03-24T09:26:55.522Z,99.90
2023-03-24T09:29:22.757Z,99.90
2023-03-24T09:31:50.502Z,99.90
2023-03-24T09:34:21.517Z,99.90
2023-03-24T09:36:48.650Z,99.90
2023-03-24T09:39:16.610Z,99.90
2023-03-24T09:41:48.584Z,99.90
2023-03-24T09:44:30.667Z,99.90
2023-03-24T09:47:00.913Z,99.90
2023-03-24T09:49:29.164Z,99.90
2023-03-24T09:52:00.501Z,99.90
2023-03-24T09:54:36.805Z,99.90
2023-03-24T09:57:06.283Z,99.90
2023-03-24T09:59:38.031Z,99.90
2023-03-24T10:02:13.657Z,99.90
2023-03-24T10:04:40.846Z,99.90
2023-03-24T10:07:26.686Z,99.90
2023-03-24T10:09:57.057Z,99.90
2023-03-24T10:12:37.592Z,99.90
2023-03-24T10:15:08.735Z,99.90
2023-03-24T10:17:35.828Z,99.90
2023-03-24T10:20:16.759Z,99.90
2023-03-24T10:22:43.812Z,99.90
2023-03-24T10:25:13.780Z,99.90
2023-03-24T10:27:47.680Z,99.90
2023-03-24T10:30:20.787Z,99.90
2023-03-24T10:32:47.962Z,99.30
2023-03-24T10:35:18.456Z,99.10
2023-03-24T10:37:45.883Z,98.80
2023-03-24T10:40:18.227Z,98.30
2023-03-24T10:42:48.765Z,96.90
2023-03-24T10:45:23.097Z,95.80
2023-03-24T10:47:51.050Z,94.50
2023-03-24T10:50:18.822Z,94.00
2023-03-24T10:52:48.731Z,92.10
2023-03-24T10:55:17.552Z,89.90
2023-03-24T10:57:49.869Z,90.90
2023-03-24T11:00:21.293Z,91.50
2023-03-24T11:02:56.085Z,94.00
2023-03-24T11:05:30.689Z,91.10
2023-03-24T11:07:59.680Z,92.40
2023-03-24T11:10:27.346Z,90.60
2023-03-24T11:12:54.448Z,91.90
2023-03-24T11:15:23.359Z,91.20
2023-03-24T11:17:53.668Z,90.80
2023-03-24T11:20:25.204Z,91.20
2023-03-24T11:23:15.352Z,89.20
2023-03-24T11:25:45.039Z,85.80
2023-03-24T11:28:16.632Z,85.30
2023-03-24T11:30:46.527Z,86.70
2023-03-24T11:33:19.332Z,84.00
2023-03-24T11:35:52.797Z,83.40
2023-03-24T11:38:34.482Z,84.40
2023-03-24T11:41:04.964Z,82.30
2023-03-24T11:43:32.505Z,81.40
2023-03-24T11:46:13.367Z,82.20
2023-03-24T11:48:57.601Z,81.80
2023-03-24T11:51:38.526Z,80.80
2023-03-24T11:54:08.973Z,84.10
2023-03-24T11:56:43.398Z,81.00
2023-03-24T11:59:22.600Z,80.00
2023-03-24T12:01:58.861Z,80.00
2023-03-24T12:04:28.791Z,79.90
2023-03-24T12:07:07.562Z,80.20
2023-03-24T12:09:55.108Z,79.20
2023-03-24T12:12:34.267Z,77.50
2023-03-24T12:15:28.218Z,80.50
2023-03-24T12:18:05.144Z,79.40
2023-03-24T12:20:39.539Z,80.50
2023-03-24T12:23:06.809Z,80.60
2023-03-24T12:25:52.816Z,80.30
2023-03-24T12:28:34.867Z,78.50
2023-03-24T12:31:24.260Z,78.60
2023-03-24T12:34:04.142Z,76.10
2023-03-24T12:36:51.549Z,75.70
2023-03-24T12:39:26.613Z,75.50
2023-03-24T12:42:05.800Z,76.10
2023-03-24T12:44:50.983Z,77.40
2023-03-24T12:47:39.957Z,78.40
2023-03-24T12:50:14.663Z,78.70
2023-03-24T12:53:13.571Z,76.70
2023-03-24T12:55:59.454Z,77.30
2023-03-24T12:58:35.835Z,77.30
2023-03-24T13:01:15.613Z,76.70
2023-03-24T13:03:55.464Z,77.00
2023-03-24T13:06:30.757Z,76.30
2023-03-24T13:09:18.380Z,76.50
2023-03-24T13:11:57.665Z,77.50
2023-03-24T13:14:31.219Z,77.30
2023-03-24T13:17:13.262Z,77.90
2023-03-24T13:19:41.237Z,79.10
2023-03-24T13:22:14.439Z,79.00
2023-03-24T13:24:41.780Z,78.80
2023-03-24T13:27:31.823Z,78.50
2023-03-24T13:30:09.031Z,79.50
2023-03-24T13:32:50.744Z,80.80
2023-03-24T13:35:27.061Z,79.20
2023-03-24T13:37:57.827Z,77.30
2023-03-24T13:40:29.372Z,77.80
2023-03-24T13:43:25.999Z,77.80
2023-03-24T13:46:00.269Z,79.10
2023-03-24T13:48:31.749Z,77.20
2023-03-24T13:51:04.350Z,76.70
2023-03-24T13:53:39.172Z,76.40
2023-03-24T13:56:07.481Z,76.30
2023-03-24T13:58:46.572Z,77.00
2023-03-24T14:01:17.099Z,77.50
2023-03-24T14:04:02.765Z,77.20
2023-03-24T14:06:48.534Z,78.30
2023-03-24T14:09:35.932Z,77.50
2023-03-24T14:12:07.388Z,79.30
2023-03-24T14:14:36.989Z,78.30
2023-03-24T14:17:04.187Z,79.20
2023-03-24T14:19:31.998Z,80.40
2023-03-24T14:22:04.065Z,79.20
2023-03-24T14:24:33.016Z,79.60
2023-03-24T14:27:00.212Z,80.70
2023-03-24T14:29:37.398Z,80.90
2023-03-24T14:32:17.193Z,82.10
2023-03-24T14:34:51.388Z,80.20
2023-03-24T14:37:18.573Z,81.60
2023-03-24T14:39:47.129Z,79.60
2023-03-24T14:42:32.633Z,78.20
2023-03-24T14:45:00.913Z,77.30
2023-03-24T14:47:30.797Z,78.00
2023-03-24T14:49:58.921Z,78.10
2023-03-24T14:52:29.910Z,78.30
2023-03-24T14:54:58.796Z,78.10
2023-03-24T14:57:30.660Z,77.90
2023-03-24T15:00:17.308Z,77.90
2023-03-24T15:02:45.632Z,77.00
2023-03-24T15:05:12.762Z,77.30
2023-03-24T15:07:40.446Z,78.30
2023-03-24T15:10:13.348Z,77.10
2023-03-24T15:12:43.524Z,75.70
2023-03-24T15:15:14.637Z,77.00
2023-03-24T15:17:42.931Z,80.20
2023-03-24T15:20:22.248Z,79.00
2023-03-24T15:22:50.923Z,78.00
2023-03-24T15:25:18.329Z,76.50
2023-03-24T15:27:53.731Z,76.20
2023-03-24T15:30:21.270Z,78.20
2023-03-24T15:32:51.607Z,77.30
2023-03-24T15:35:20.359Z,78.60
2023-03-24T15:37:54.517Z,77.90
2023-03-24T15:40:27.526Z,78.90
2023-03-24T15:42:56.225Z,78.30
2023-03-24T15:45:31.113Z,78.80
2023-03-24T15:48:02.601Z,79.00
2023-03-24T15:50:34.653Z,79.30
2023-03-24T15:53:06.859Z,79.40
2023-03-24T15:55:35.842Z,78.80
2023-03-24T15:58:23.158Z,79.70
2023-03-24T16:00:53.154Z,79.10
2023-03-24T16:03:26.158Z,79.10
2023-03-24T16:05:54.815Z,79.40
2023-03-24T16:08:41.204Z,79.70
2023-03-24T16:11:11.887Z,80.60
2023-03-24T16:13:39.998Z,79.80
2023-03-24T16:16:13.258Z,80.00
2023-03-24T16:18:47.113Z,80.30
2023-03-24T16:21:16.995Z,80.80
2023-03-24T16:23:46.657Z,81.00
2023-03-24T16:26:13.762Z,81.40
2023-03-24T16:28:41.007Z,81.70
2023-03-24T16:31:12.832Z,82.00
2023-03-24T16:33:40.015Z,82.10
2023-03-24T16:36:07.362Z,82.40
2023-03-24T16:38:34.452Z,82.90
2023-03-24T16:41:01.913Z,83.10
2023-03-24T16:43:33.174Z,82.80
2023-03-24T16:46:00.321Z,83.30
2023-03-24T16:48:27.420Z,83.30
2023-03-24T16:50:55.932Z,83.70
2023-03-24T16:53:23.038Z,83.80
2023-03-24T16:55:50.156Z,83.60
2023-03-24T16:58:17.273Z,83.60
2023-03-24T17:00:45.553Z,83.80
2023-03-24T17:03:14.099Z,83.80
2023-03-24T17:05:48.711Z,84.70
2023-03-24T17:08:16.486Z,84.80
2023-03-24T17:10:43.876Z,85.30
2023-03-24T17:13:21.380Z,85.20
2023-03-24T17:15:52.244Z,85.30
2023-03-24T17:18:19.817Z,85.80
2023-03-24T17:20:48.380Z,85.80
2023-03-24T17:23:18.465Z,86.30
2023-03-24T17:25:45.968Z,86.40
2023-03-24T17:28:16.705Z,86.70
2023-03-24T17:30:43.812Z,87.10
2023-03-24T17:33:14.861Z,87.40
2023-03-24T17:35:43.489Z,87.20
2023-03-24T17:38:12.959Z,87.60
2023-03-24T17:40:40.492Z,87.60
2023-03-24T17:43:07.734Z,87.60
2023-03-24T17:45:34.869Z,87.80
2023-03-24T17:48:02.045Z,87.90
2023-03-24T17:50:30.778Z,87.90
2023-03-24T17:52:58.099Z,87.80
2023-03-24T17:55:25.252Z,87.90
2023-03-24T17:57:52.528Z,87.70
2023-03-24T18:00:19.758Z,87.70
2023-03-24T18:02:49.406Z,87.60
2023-03-24T18:05:16.732Z,87.70
2023-03-24T18:07:43.843Z,87.50
2023-03-24T18:10:11.095Z,87.60
2023-03-24T18:12:38.420Z,87.20
2023-03-24T18:15:07.121Z,87.30
2023-03-24T18:17:34.424Z,87.70
2023-03-24T18:20:09.926Z,87.90
2023-03-24T18:22:37.849Z,88.20
2023-03-24T18:25:05.112Z,88.40
2023-03-24T18:27:32.489Z,88.10
2023-03-24T18:29:59.639Z,88.40
2023-03-24T18:32:27.205Z,88.30
2023-03-24T18:34:54.386Z,88.60
2023-03-24T18:37:24.062Z,89.20
2023-03-24T18:39:51.130Z,89.20
2023-03-24T18:42:18.291Z,89.50
2023-03-24T18:44:45.762Z,89.60
2023-03-24T18:47:16.098Z,89.70
2023-03-24T18:49:44.490Z,90.10
2023-03-24T18:52:11.646Z,90.50
2023-03-24T18:54:38.707Z,90.30
2023-03-24T18:57:06.165Z,90.30
2023-03-24T18:59:33.434Z,90.20
2023-03-24T19:02:00.550Z,90.20
2023-03-24T19:04:27.675Z,90.20
2023-03-24T19:06:54.798Z,90.20
2023-03-24T19:09:22.864Z,90.30
2023-03-24T19:11:50.066Z,90.40
2023-03-24T19:14:17.201Z,90.30
2023-03-24T19:16:46.206Z,90.20
2023-03-24T19:19:14.033Z,90.40
2023-03-24T19:21:41.832Z,90.40
2023-03-24T19:24:09.768Z,90.50
2023-03-24T19:26:36.852Z,90.40
2023-03-24T19:29:03.930Z,90.70
2023-03-24T19:31:31.047Z,90.70
2023-03-24T19:33:58.193Z,90.70
2023-03-24T19:36:26.294Z,90.80
2023-03-24T19:38:53.555Z,90.70
2023-03-24T19:41:20.706Z,90.80
2023-03-24T19:43:47.809Z,90.80
2023-03-24T19:46:16.558Z,91.00
2023-03-24T19:48:43.747Z,91.10
2023-03-24T19:51:11.015Z,91.50
2023-03-24T19:53:38.142Z,92.10
2023-03-24T19:56:06.676Z,92.60
2023-03-24T19:58:33.848Z,93.00
2023-03-24T20:01:01.107Z,93.20
2023-03-24T20:03:28.965Z,93.40
2023-03-24T20:05:56.252Z,93.60
2023-03-24T20:08:25.964Z,93.60
2023-03-24T20:10:53.156Z,93.50
2023-03-24T20:13:20.458Z,93.60
2023-03-24T20:15:47.640Z,93.80
2023-03-24T20:18:14.831Z,93.90
2023-03-24T20:20:42.210Z,94.10
2023-03-24T20:23:10.470Z,94.20
2023-03-24T20:25:40.869Z,94.20
2023-03-24T20:28:09.251Z,94.10
2023-03-24T20:30:36.314Z,94.40
2023-03-24T20:33:03.593Z,94.40
2023-03-24T20:35:35.940Z,94.50
2023-03-24T20:38:03.685Z,94.30
2023-03-24T20:40:30.880Z,94.60
2023-03-24T20:43:00.830Z,94.80
2023-03-24T20:45:28.033Z,94.90
2023-03-24T20:47:55.440Z,94.70
2023-03-24T20:50:22.565Z,94.70
2023-03-24T20:52:52.691Z,94.80
2023-03-24T20:55:19.867Z,94.70
2023-03-24T20:57:47.591Z,94.70
2023-03-24T21:00:14.929Z,94.90
2023-03-24T21:02:42.530Z,95.00
2023-03-24T21:05:09.901Z,95.30
2023-03-24T21:07:38.293Z,95.50
2023-03-24T21:10:06.587Z,95.70
2023-03-24T21:12:34.173Z,95.90
2023-03-24T21:15:01.497Z,96.10
2023-03-24T21:17:32.411Z,96.40
2023-03-24T21:20:13.111Z,96.40
2023-03-24T21:22:56.262Z,96.50
2023-03-24T21:25:24.570Z,96.90
2023-03-24T21:27:51.956Z,96.60
2023-03-24T21:30:19.087Z,96.60
2023-03-24T21:32:46.744Z,96.50
2023-03-24T21:35:14.505Z,96.40
2023-03-24T21:37:45.722Z,96.40
2023-03-24T21:40:13.793Z,96.50
2023-03-24T21:42:43.565Z,96.40
2023-03-24T21:45:12.707Z,96.70
2023-03-24T21:47:39.948Z,96.60
2023-03-24T21:50:07.442Z,96.50
2023-03-24T21:52:39.041Z,96.30
2023-03-24T21:55:06.476Z,96.20
2023-03-24T21:57:33.710Z,96.30
2023-03-24T22:00:01.970Z,96.60
2023-03-24T22:02:39.638Z,96.60
2023-03-24T22:05:07.040Z,96.60
2023-03-24T22:07:39.421Z,96.60
2023-03-24T22:10:08.408Z,96.70
2023-03-24T22:12:36.076Z,96.80
2023-03-24T22:15:03.381Z,96.80
2023-03-24T22:17:30.726Z,96.70
2023-03-24T22:19:57.802Z,96.60
2023-03-24T22:22:24.871Z,96.50
2023-03-24T22:24:51.948Z,96.70
2023-03-24T22:27:19.035Z,96.50
2023-03-24T22:29:48.397Z,96.60
2023-03-24T22:32:15.594Z,96.60
2023-03-24T22:34:42.742Z,96.50
2023-03-24T22:37:09.851Z,96.50
2023-03-24T22:39:37.043Z,96.60
2023-03-24T22:42:04.480Z,96.60
2023-03-24T22:44:32.132Z,96.50
2023-03-24T22:46:59.799Z,96.40
2023-03-24T22:49:26.976Z,96.70
2023-03-24T22:51:54.054Z,96.80
2023-03-24T22:54:21.484Z,96.60
2023-03-24T22:56:48.581Z,96.60
2023-03-24T22:59:15.779Z,96.40
2023-03-24T23:01:42.884Z,96.30
2023-03-24T23:04:11.808Z,96.50
2023-03-24T23:06:40.151Z,96.30
2023-03-24T23:09:07.251Z,96.20
2023-03-24T23:11:34.400Z,96.60
2023-03-24T23:14:05.171Z,96.40
2023-03-24T23:16:37.699Z,96.60
2023-03-24T23:19:06.045Z,96.60
2023-03-24T23:21:34.028Z,96.60
2023-03-24T23:24:01.302Z,96.60
2023-03-24T23:26:30.116Z,96.70
2023-03-24T23:28:57.204Z,96.80
2023-03-24T23:31:25.683Z,96.80
2023-03-24T23:33:54.078Z,97.00
2023-03-24T23:36:21.223Z,96.80
2023-03-24T23:38:50.609Z,97.00
2023-03-24T23:41:19.293Z,97.20
2023-03-24T23:43:50.146Z,97.10
2023-03-24T23:46:17.626Z,97.30
2023-03-24T23:48:44.840Z,97.60
2023-03-24T23:51:12.069Z,97.80
2023-03-24T23:53:39.257Z,97.70
2023-03-24T23:56:12.029Z,97.80
2023-03-24T23:58:40.177Z,97.80
